Time;durP1;ratioP1;P1;durP2;ratioP2;P2;SDS_P1;SDS_P2;PMS_P1;PMS_P2;Temp;Humidity;BMP_temperature;BMP_pressure;BME280_temperature;BME280_humidity;BME280_pressure;Samples;Min_cycle;Max_cycle;Signal;HPM_P1;HPM_P2
2022/09/10 00:02:01;;;;;;;3.83;2.00;;;13.90;91.60;;;;;;5114422;28;20599;-86
2022/09/10 00:04:27;;;;;;;4.43;2.17;;;13.80;91.60;;;;;;5114508;28;20644;-87
2022/09/10 00:06:54;;;;;;;3.17;2.30;;;13.80;91.40;;;;;;5114246;28;20190;-86
2022/09/10 00:09:19;;;;;;;3.27;2.60;;;13.80;91.40;;;;;;5114363;28;20174;-86
2022/09/10 00:11:45;;;;;;;2.43;2.00;;;13.80;91.30;;;;;;5114252;28;20169;-86
2022/09/10 00:14:22;;;;;;;5.33;2.20;;;13.80;91.20;;;;;;5115541;28;20181;-87
2022/09/10 00:16:49;;;;;;;2.70;2.20;;;13.80;91.20;;;;;;5114147;28;20201;-86
2022/09/10 00:19:15;;;;;;;3.13;2.25;;;13.80;91.20;;;;;;5115307;27;20178;-86
2022/09/10 00:21:43;;;;;;;4.13;2.00;;;13.70;91.10;;;;;;5114037;28;20235;-86
2022/09/10 00:24:08;;;;;;;3.43;2.30;;;13.80;91.10;;;;;;5114794;28;20174;-86
2022/09/10 00:26:39;;;;;;;11.63;2.90;;;13.70;91.00;;;;;;5113862;28;20244;-86
2022/09/10 00:29:09;;;;;;;3.63;2.50;;;13.80;91.00;;;;;;5114023;28;20177;-86
2022/09/10 00:31:36;;;;;;;6.72;2.75;;;13.80;91.00;;;;;;5114035;28;20162;-87
2022/09/10 00:34:03;;;;;;;3.75;2.90;;;13.90;91.00;;;;;;5113822;28;20265;-86
2022/09/10 00:36:34;;;;;;;4.43;2.80;;;13.90;91.00;;;;;;5115040;28;20200;-86
2022/09/10 00:39:02;;;;;;;5.60;2.90;;;13.90;91.10;;;;;;5115066;28;20154;-86
2022/09/10 00:41:29;;;;;;;5.90;2.60;;;13.80;91.20;;;;;;5113485;28;20202;-86
2022/09/10 00:43:57;;;;;;;4.00;2.80;;;13.80;91.30;;;;;;5113645;28;20201;-86
2022/09/10 00:46:24;;;;;;;4.90;2.97;;;13.80;91.40;;;;;;5112782;28;20194;-86
2022/09/10 00:48:51;;;;;;;6.80;3.23;;;13.80;91.60;;;;;;5113506;28;20204;-86
2022/09/10 00:51:18;;;;;;;7.53;3.20;;;13.80;91.70;;;;;;5114838;28;20170;-86
2022/09/10 00:53:45;;;;;;;6.07;4.00;;;13.80;91.90;;;;;;5113406;28;20177;-86
2022/09/10 00:56:11;;;;;;;8.33;3.50;;;13.80;91.90;;;;;;5113312;28;20221;-86
2022/09/10 00:58:36;;;;;;;11.13;2.90;;;13.80;91.90;;;;;;5113327;28;20214;-86
2022/09/10 01:01:02;;;;;;;6.17;2.70;;;13.90;92.00;;;;;;5114448;28;20186;-86
2022/09/10 01:03:30;;;;;;;5.07;3.10;;;13.90;92.00;;;;;;5113366;28;20624;-86
2022/09/10 01:05:56;;;;;;;6.60;3.10;;;13.90;92.00;;;;;;5114407;28;20190;-86
2022/09/10 01:08:22;;;;;;;2.80;2.60;;;13.90;92.00;;;;;;5113322;28;20174;-86
2022/09/10 01:11:26;;;;;;;4.10;2.20;;;13.90;92.00;;;;;;5114449;28;20223;-87
2022/09/10 01:14:11;;;;;;;7.20;2.72;;;14.00;92.00;;;;;;5114518;28;20620;-86
2022/09/10 01:16:51;;;;;;;6.17;3.00;;;14.00;92.00;;;;;;5113013;28;20675;-86
2022/09/10 01:19:40;;;;;;;5.97;2.97;;;14.00;92.00;;;;;;5114349;28;20243;-86
2022/09/10 01:22:56;;;;;;;5.80;3.20;;;14.00;92.10;;;;;;5114098;28;20186;-86
2022/09/10 01:25:56;;;;;;;4.90;3.33;;;14.00;92.10;;;;;;5082586;28;20174;-86
2022/09/10 01:28:34;;;;;;;8.47;3.30;;;14.10;92.10;;;;;;5112046;28;20213;-86
2022/09/10 01:31:10;;;;;;;5.77;3.43;;;14.00;92.10;;;;;;5114156;28;20158;-86
2022/09/10 01:33:45;;;;;;;8.83;4.13;;;14.00;92.20;;;;;;5112811;28;20166;-86
2022/09/10 01:36:18;;;;;;;4.70;3.57;;;14.00;92.20;;;;;;5114212;28;20189;-86
2022/09/10 01:38:44;;;;;;;5.93;3.37;;;14.00;92.20;;;;;;5112792;28;20154;-86
2022/09/10 01:41:11;;;;;;;4.57;3.30;;;14.00;92.20;;;;;;5113726;28;20170;-86
2022/09/10 01:43:37;;;;;;;5.03;3.00;;;14.00;92.20;;;;;;5112551;28;20311;-86
2022/09/10 01:46:02;;;;;;;3.37;3.07;;;14.00;92.30;;;;;;5113796;28;20268;-86
2022/09/10 01:48:52;;;;;;;4.82;3.00;;;14.00;92.30;;;;;;5112569;28;20639;-86
2022/09/10 01:51:37;;;;;;;7.83;3.37;;;14.10;92.30;;;;;;5114024;28;20147;-87
2022/09/10 01:54:23;;;;;;;3.38;3.08;;;14.10;92.30;;;;;;5112480;28;20532;-86
2022/09/10 01:57:04;;;;;;;5.00;3.43;;;14.10;92.30;;;;;;5112502;28;20239;-86
2022/09/10 02:00:11;;;;;;;8.40;3.45;;;14.10;92.30;;;;;;5113866;28;20162;-87
2022/09/10 02:02:47;;;;;;;5.80;3.28;;;14.10;92.30;;;;;;5070858;28;20226;-86
2022/09/10 02:05:15;;;;;;;5.70;3.05;;;14.10;92.40;;;;;;5109784;28;20177;-86
2022/09/10 02:07:43;;;;;;;4.78;3.50;;;14.20;92.40;;;;;;5112541;28;20193;-86
2022/09/10 02:10:09;;;;;;;12.13;3.15;;;14.20;92.30;;;;;;5112493;28;20187;-86
2022/09/10 02:12:35;;;;;;;5.40;3.30;;;14.20;92.40;;;;;;5113398;28;20204;-86
2022/09/10 02:15:02;;;;;;;8.48;3.30;;;14.20;92.40;;;;;;5112267;28;20177;-86
2022/09/10 02:17:32;;;;;;;6.82;3.50;;;14.20;92.40;;;;;;5113387;28;20194;-86
2022/09/10 02:19:59;;;;;;;5.70;3.22;;;14.20;92.40;;;;;;5113541;28;20529;-87
2022/09/10 02:22:25;;;;;;;4.82;3.75;;;14.20;92.40;;;;;;5112572;28;20258;-86
2022/09/10 02:24:51;;;;;;;3.75;3.25;;;14.20;92.40;;;;;;5112138;28;20555;-86
2022/09/10 02:27:16;;;;;;;7.88;3.53;;;14.20;92.40;;;;;;5112088;28;20194;-87
2022/09/10 02:29:42;;;;;;;9.75;3.75;;;14.20;92.40;;;;;;5113392;28;20171;-86
2022/09/10 02:32:09;;;;;;;4.97;3.92;;;14.20;92.50;;;;;;5112088;28;20234;-86
2022/09/10 02:34:35;;;;;;;6.80;4.13;;;14.20;92.40;;;;;;5113318;28;20535;-86
2022/09/10 02:37:02;;;;;;;5.32;3.45;;;14.20;92.40;;;;;;5112012;28;20226;-87
2022/09/10 02:39:28;;;;;;;9.45;4.05;;;14.20;92.50;;;;;;5112072;28;20173;-86
2022/09/10 02:41:54;;;;;;;4.82;2.97;;;14.20;92.50;;;;;;5112038;28;20251;-86
2022/09/10 02:44:20;;;;;;;4.32;3.55;;;14.20;92.50;;;;;;5113313;28;20166;-87
2022/09/10 02:46:46;;;;;;;6.25;3.67;;;14.20;92.50;;;;;;5113133;28;20193;-86
2022/09/10 02:49:12;;;;;;;6.05;3.67;;;14.20;92.50;;;;;;5113228;28;20237;-86
2022/09/10 02:51:37;;;;;;;3.80;3.42;;;14.20;92.60;;;;;;5111860;28;20269;-86
2022/09/10 02:54:04;;;;;;;6.13;3.58;;;14.20;92.60;;;;;;5111925;28;20174;-86
2022/09/10 02:56:29;;;;;;;6.90;3.60;;;14.20;92.60;;;;;;5113122;28;20198;-86
2022/09/10 02:58:55;;;;;;;7.20;3.63;;;14.10;92.60;;;;;;5113272;28;20191;-86
2022/09/10 03:01:21;;;;;;;5.07;3.47;;;14.10;92.60;;;;;;5112423;28;20190;-86
2022/09/10 03:03:55;;;;;;;7.65;3.60;;;14.00;92.60;;;;;;5111916;28;20183;-86
2022/09/10 03:06:22;;;;;;;4.70;3.50;;;14.00;92.70;;;;;;5111744;28;20201;-86
2022/09/10 03:08:48;;;;;;;4.83;3.30;;;14.10;92.70;;;;;;5113465;28;20211;-86
2022/09/10 03:11:15;;;;;;;6.75;3.30;;;14.10;92.80;;;;;;5115526;28;20588;-86
2022/09/10 03:13:42;;;;;;;6.13;3.38;;;14.10;92.80;;;;;;5115492;28;20173;-87
2022/09/10 03:16:09;;;;;;;5.87;3.40;;;14.10;92.80;;;;;;5115289;28;20193;-87
2022/09/10 03:18:34;;;;;;;6.00;3.03;;;14.10;92.80;;;;;;5116850;28;20262;-86
2022/09/10 03:21:13;;;;;;;4.50;3.10;;;14.10;92.80;;;;;;5116593;28;20209;-86
2022/09/10 03:23:40;;;;;;;7.07;3.10;;;14.10;92.80;;;;;;5116144;28;20226;-86
2022/09/10 03:26:05;;;;;;;7.33;3.27;;;14.20;92.90;;;;;;5115117;28;20197;-86
2022/09/10 03:28:32;;;;;;;4.90;2.97;;;14.20;92.80;;;;;;5115170;28;20174;-86
2022/09/10 03:30:58;;;;;;;7.18;3.45;;;14.20;92.80;;;;;;5115130;28;20226;-87
2022/09/10 03:33:23;;;;;;;5.87;3.60;;;14.10;92.80;;;;;;5115071;28;20306;-86
2022/09/10 03:35:51;;;;;;;9.07;4.70;;;14.10;92.80;;;;;;5116420;27;20194;-86
2022/09/10 03:38:17;;;;;;;5.57;3.70;;;14.10;92.80;;;;;;5115018;28;20663;-86
2022/09/10 03:40:43;;;;;;;4.57;3.57;;;14.10;92.70;;;;;;5116115;28;20174;-86
2022/09/10 03:43:08;;;;;;;6.85;3.60;;;14.00;92.70;;;;;;5114748;28;20209;-86
2022/09/10 03:45:34;;;;;;;4.23;3.43;;;13.90;92.60;;;;;;5114746;28;20194;-86
2022/09/10 03:47:59;;;;;;;4.17;3.60;;;13.90;92.70;;;;;;5114826;28;20170;-86
2022/09/10 03:50:25;;;;;;;3.80;3.45;;;14.00;92.80;;;;;;5116222;28;20198;-86
2022/09/10 03:52:51;;;;;;;12.27;4.33;;;14.00;92.80;;;;;;5114663;28;20754;-87
2022/09/10 03:55:16;;;;;;;40.72;11.20;;;14.00;92.80;;;;;;5114817;28;20185;-86
2022/09/10 03:57:42;;;;;;;21.30;6.57;;;14.00;92.80;;;;;;5115755;28;20174;-87
2022/09/10 04:00:10;;;;;;;7.03;4.23;;;14.00;92.80;;;;;;5114567;28;20185;-86
2022/09/10 04:02:36;;;;;;;5.00;4.50;;;14.00;92.80;;;;;;5115880;28;20205;-86
2022/09/10 04:05:03;;;;;;;9.37;4.60;;;14.00;92.80;;;;;;5115730;28;20234;-86
2022/09/10 04:07:29;;;;;;;12.38;5.22;;;14.00;92.80;;;;;;5114367;28;20201;-86
2022/09/10 04:09:54;;;;;;;9.13;4.30;;;14.00;92.90;;;;;;5114393;28;20182;-87
2022/09/10 04:12:20;;;;;;;8.48;4.90;;;13.90;92.80;;;;;;5114284;28;20178;-86
2022/09/10 04:14:46;;;;;;;10.30;4.60;;;13.90;92.80;;;;;;5115475;28;20170;-87
2022/09/10 04:17:11;;;;;;;12.35;4.63;;;13.90;92.90;;;;;;5115527;28;20190;-86
2022/09/10 04:19:39;;;;;;;10.18;5.30;;;13.90;92.90;;;;;;5114176;28;20269;-87
2022/09/10 04:22:04;;;;;;;8.63;5.03;;;13.90;92.90;;;;;;5114121;28;20280;-86
2022/09/10 04:24:30;;;;;;;13.00;4.87;;;13.90;92.90;;;;;;5115281;28;20600;-87
2022/09/10 04:26:56;;;;;;;10.00;4.63;;;13.90;92.90;;;;;;5114004;28;20189;-86
2022/09/10 04:29:22;;;;;;;8.93;4.60;;;13.80;92.90;;;;;;5114541;28;20177;-87
2022/09/10 04:31:47;;;;;;;7.00;4.20;;;13.90;93.00;;;;;;5115185;28;20170;-86
2022/09/10 04:34:13;;;;;;;12.60;4.03;;;13.80;92.90;;;;;;5115408;28;20174;-86
2022/09/10 04:36:39;;;;;;;10.95;3.60;;;13.90;93.00;;;;;;5113998;28;20202;-86
2022/09/10 04:39:04;;;;;;;9.23;4.70;;;13.90;93.00;;;;;;5113704;28;20182;-87
2022/09/10 04:41:30;;;;;;;5.10;4.57;;;13.90;93.00;;;;;;5113738;28;20202;-86
2022/09/10 04:43:55;;;;;;;9.30;4.13;;;13.90;93.00;;;;;;5115468;28;20165;-87
2022/09/10 04:46:22;;;;;;;7.80;3.72;;;13.80;93.00;;;;;;5114330;28;20255;-86
2022/09/10 04:48:48;;;;;;;6.22;4.10;;;13.80;93.00;;;;;;5115083;28;20162;-86
2022/09/10 04:51:14;;;;;;;6.30;3.50;;;13.80;93.10;;;;;;5113490;28;20698;-86
2022/09/10 04:53:40;;;;;;;5.80;4.27;;;13.80;93.10;;;;;;5113528;27;20670;-86
2022/09/10 04:56:06;;;;;;;6.10;3.87;;;13.80;93.10;;;;;;5113334;28;20688;-86
2022/09/10 04:58:32;;;;;;;10.37;3.90;;;13.80;93.10;;;;;;5114698;28;20226;-86
2022/09/10 05:00:57;;;;;;;5.10;3.70;;;13.90;93.20;;;;;;5114448;28;20190;-87
2022/09/10 05:03:23;;;;;;;5.47;3.67;;;13.90;93.20;;;;;;5114814;28;20532;-87
2022/09/10 05:05:49;;;;;;;5.03;3.90;;;13.80;93.20;;;;;;5113290;28;20194;-86
2022/09/10 05:08:15;;;;;;;9.23;4.00;;;13.80;93.20;;;;;;5114462;28;20181;-86
2022/09/10 05:10:41;;;;;;;7.17;3.53;;;13.90;93.20;;;;;;5113157;28;20170;-86
2022/09/10 05:13:07;;;;;;;4.37;3.77;;;13.90;93.30;;;;;;5114351;28;20254;-86
2022/09/10 05:15:34;;;;;;;4.43;3.33;;;13.90;93.30;;;;;;5112999;28;20184;-86
2022/09/10 05:18:00;;;;;;;7.97;3.67;;;13.90;93.30;;;;;;5113107;28;20173;-87
2022/09/10 05:20:26;;;;;;;4.90;3.97;;;13.90;93.30;;;;;;5114256;28;20219;-86
2022/09/10 05:22:53;;;;;;;4.35;3.75;;;14.00;93.30;;;;;;5114549;28;20197;-86
2022/09/10 05:25:19;;;;;;;4.20;3.80;;;14.00;93.30;;;;;;5114146;27;20204;-86
2022/09/10 05:27:45;;;;;;;6.28;3.88;;;14.00;93.30;;;;;;5112855;28;20209;-86
2022/09/10 05:30:11;;;;;;;6.53;3.67;;;14.00;93.30;;;;;;5112836;28;20256;-86
2022/09/10 05:32:37;;;;;;;5.53;4.00;;;14.00;93.40;;;;;;5113581;28;20176;-87
2022/09/10 05:35:04;;;;;;;9.47;4.93;;;14.10;93.40;;;;;;5114025;28;20651;-87
2022/09/10 05:37:30;;;;;;;6.63;4.53;;;14.10;93.40;;;;;;5113909;28;20190;-87
2022/09/10 05:39:56;;;;;;;5.33;4.10;;;14.20;93.40;;;;;;5113958;28;20267;-87
2022/09/10 05:42:21;;;;;;;8.13;4.43;;;14.20;93.40;;;;;;5113781;28;20207;-86
2022/09/10 05:44:47;;;;;;;8.40;4.53;;;14.20;93.50;;;;;;5113904;28;20166;-87
2022/09/10 05:47:13;;;;;;;5.30;3.50;;;14.20;93.50;;;;;;5113722;28;20190;-87
2022/09/10 05:49:38;;;;;;;6.43;4.15;;;14.20;93.50;;;;;;5112545;28;20166;-87
2022/09/10 05:52:04;;;;;;;5.37;4.10;;;14.30;93.50;;;;;;5114004;28;20182;-87
2022/09/10 05:54:29;;;;;;;4.63;3.73;;;14.30;93.50;;;;;;5114316;28;20222;-87
2022/09/10 05:56:57;;;;;;;4.45;3.88;;;14.40;93.60;;;;;;5112334;28;20567;-87
2022/09/10 05:59:23;;;;;;;5.60;3.90;;;14.40;93.50;;;;;;5114026;28;20181;-87
2022/09/10 06:01:50;;;;;;;8.55;3.88;;;14.40;93.50;;;;;;5112397;28;20213;-87
2022/09/10 06:04:17;;;;;;;10.37;3.97;;;14.50;93.50;;;;;;5112491;28;20215;-89
2022/09/10 06:06:44;;;;;;;4.47;3.33;;;14.50;93.50;;;;;;5113535;28;20221;-88
2022/09/10 06:09:09;;;;;;;4.97;3.83;;;14.50;93.60;;;;;;5114678;28;20211;-90
2022/09/10 06:11:35;;;;;;;7.53;4.30;;;14.50;93.50;;;;;;5114718;28;20190;-90
2022/09/10 06:14:00;;;;;;;5.80;3.47;;;14.60;93.60;;;;;;5114004;28;20239;-89
2022/09/10 06:16:26;;;;;;;8.18;4.28;;;14.60;93.50;;;;;;5114417;28;20190;-89
2022/09/10 06:18:53;;;;;;;6.93;3.90;;;14.50;93.50;;;;;;5113152;28;20213;-90
2022/09/10 06:21:19;;;;;;;10.40;4.68;;;14.50;93.50;;;;;;5114139;28;20169;-90
2022/09/10 06:23:45;;;;;;;8.00;4.65;;;14.50;93.50;;;;;;5112912;28;20181;-90
2022/09/10 06:26:16;;;;;;;5.73;4.10;;;14.50;93.50;;;;;;5112609;28;20242;-88
2022/09/10 06:28:42;;;;;;;6.18;4.25;;;14.60;93.50;;;;;;5112357;28;20174;-88
2022/09/10 06:31:10;;;;;;;6.20;4.13;;;14.60;93.50;;;;;;5112464;28;20265;-89
2022/09/10 06:33:36;;;;;;;5.03;4.20;;;14.60;93.50;;;;;;5113707;28;20249;-89
2022/09/10 06:36:02;;;;;;;6.50;4.35;;;14.70;93.60;;;;;;5112444;28;20293;-89
2022/09/10 06:38:35;;;;;;;6.32;4.40;;;14.70;93.50;;;;;;5112385;28;20201;-88
2022/09/10 06:41:04;;;;;;;6.75;4.68;;;14.70;93.50;;;;;;5114261;28;20237;-88
2022/09/10 06:43:32;;;;;;;9.43;4.90;;;14.70;93.50;;;;;;5112200;28;20208;-89
2022/09/10 06:45:58;;;;;;;7.28;4.95;;;14.70;93.50;;;;;;5116096;28;20733;-88
2022/09/10 06:48:27;;;;;;;8.20;4.93;;;14.80;93.50;;;;;;5117337;28;20170;-89
2022/09/10 06:50:54;;;;;;;6.47;5.53;;;14.80;93.50;;;;;;5116166;28;20178;-89
2022/09/10 06:53:21;;;;;;;8.50;4.65;;;14.90;93.60;;;;;;5115991;28;20178;-88
2022/09/10 06:55:51;;;;;;;7.25;5.75;;;14.90;93.60;;;;;;5116249;28;20284;-89
2022/09/10 06:58:19;;;;;;;7.80;5.60;;;14.90;93.60;;;;;;5116022;28;20224;-89
2022/09/10 07:00:46;;;;;;;13.25;5.95;;;14.90;93.60;;;;;;5115815;28;20265;-89
2022/09/10 07:03:13;;;;;;;7.60;5.75;;;14.90;93.60;;;;;;5115780;28;20198;-89
2022/09/10 07:05:39;;;;;;;8.13;6.53;;;15.00;93.60;;;;;;5115816;28;20667;-89
2022/09/10 07:08:05;;;;;;;13.18;6.53;;;15.10;93.60;;;;;;5115712;28;20178;-89
2022/09/10 07:10:31;;;;;;;11.32;7.13;;;15.10;93.60;;;;;;5115726;28;20170;-88
2022/09/10 07:12:56;;;;;;;8.98;6.60;;;15.10;93.50;;;;;;5116911;28;20514;-89
2022/09/10 07:15:22;;;;;;;9.40;6.88;;;15.20;93.50;;;;;;5115572;28;20174;-88
2022/09/10 07:17:47;;;;;;;10.05;6.43;;;15.20;93.40;;;;;;5116765;28;20178;-88
2022/09/10 07:20:13;;;;;;;12.07;7.72;;;15.30;93.40;;;;;;5115554;28;20177;-88
2022/09/10 07:22:41;;;;;;;12.02;7.60;;;15.20;93.30;;;;;;5115475;28;20271;-88
2022/09/10 07:25:07;;;;;;;12.60;9.15;;;15.20;93.20;;;;;;5116638;28;20159;-89
2022/09/10 07:27:32;;;;;;;13.05;8.25;;;15.20;93.20;;;;;;5115456;28;20193;-88
2022/09/10 07:29:58;;;;;;;13.75;8.57;;;15.30;93.10;;;;;;5117061;28;20574;-89
2022/09/10 07:32:23;;;;;;;11.52;8.90;;;15.30;93.20;;;;;;5115474;28;20181;-89
2022/09/10 07:34:49;;;;;;;14.05;8.98;;;15.40;93.10;;;;;;5115409;28;20177;-88
2022/09/10 07:37:14;;;;;;;13.23;9.93;;;15.50;93.10;;;;;;5116542;28;20189;-89
2022/09/10 07:39:40;;;;;;;11.68;9.20;;;15.50;93.00;;;;;;5115401;28;20680;-89
2022/09/10 07:42:06;;;;;;;13.52;9.98;;;15.50;93.00;;;;;;5115146;28;20251;-89
2022/09/10 07:44:31;;;;;;;20.98;10.98;;;15.50;92.90;;;;;;5115271;28;20174;-88
2022/09/10 07:46:58;;;;;;;12.88;10.27;;;15.50;92.80;;;;;;5115135;28;20668;-89
2022/09/10 07:49:25;;;;;;;14.55;9.80;;;15.60;92.80;;;;;;5115477;28;20159;-88
2022/09/10 07:51:52;;;;;;;17.65;9.85;;;15.60;92.60;;;;;;5115078;28;20678;-88
2022/09/10 07:54:19;;;;;;;12.90;10.70;;;15.70;92.60;;;;;;5115031;28;20174;-87
2022/09/10 07:56:44;;;;;;;15.35;10.77;;;15.70;92.40;;;;;;5114417;28;20221;-87
2022/09/10 07:59:10;;;;;;;17.85;11.38;;;15.70;92.40;;;;;;5115969;28;20644;-87
2022/09/10 08:01:36;;;;;;;12.93;10.75;;;15.80;92.30;;;;;;5115549;27;20206;-88
2022/09/10 08:04:02;;;;;;;14.70;11.52;;;15.90;92.20;;;;;;5114654;28;20177;-87
2022/09/10 08:06:28;;;;;;;14.48;11.55;;;15.90;92.20;;;;;;5114667;28;20668;-88
2022/09/10 08:08:54;;;;;;;15.75;12.32;;;16.00;92.00;;;;;;5114611;28;20219;-89
2022/09/10 08:11:20;;;;;;;17.90;12.60;;;16.10;92.10;;;;;;5114670;28;20169;-88
2022/09/10 08:13:48;;;;;;;16.85;12.07;;;16.10;91.70;;;;;;5116165;28;20248;-87
2022/09/10 08:16:19;;;;;;;24.60;11.98;;;16.20;91.70;;;;;;5115692;28;20292;-88
2022/09/10 08:18:46;;;;;;;22.50;11.75;;;16.20;91.30;;;;;;5114472;28;20184;-87
2022/09/10 08:21:12;;;;;;;17.88;12.02;;;16.20;91.40;;;;;;5115663;27;20174;-88
2022/09/10 08:23:38;;;;;;;15.20;11.35;;;16.40;91.40;;;;;;5114612;28;20210;-88
2022/09/10 08:26:06;;;;;;;14.13;10.98;;;16.60;91.50;;;;;;5114259;28;20691;-88
2022/09/10 08:28:33;;;;;;;18.90;12.13;;;16.70;91.40;;;;;;5114376;28;20194;-88
2022/09/10 08:31:07;;;;;;;16.92;12.30;;;16.70;90.90;;;;;;5114451;28;20201;-90
2022/09/10 08:33:34;;;;;;;14.32;12.57;;;16.70;90.80;;;;;;5114311;28;20195;-89
2022/09/10 08:36:01;;;;;;;15.60;13.05;;;16.80;90.60;;;;;;5114022;28;20205;-89
2022/09/10 08:38:31;;;;;;;17.77;14.95;;;17.00;90.60;;;;;;5115408;28;20537;-90
2022/09/10 08:40:58;;;;;;;19.95;15.25;;;16.80;89.60;;;;;;5114140;28;20261;-90
2022/09/10 08:43:32;;;;;;;20.98;15.07;;;16.90;89.60;;;;;;5115113;28;20202;-90
2022/09/10 08:46:03;;;;;;;15.27;12.85;;;16.90;88.80;;;;;;5113923;28;20194;-88
2022/09/10 08:48:32;;;;;;;15.25;12.68;;;17.10;89.10;;;;;;5114278;28;20245;-86
2022/09/10 08:51:09;;;;;;;25.00;18.23;;;17.30;89.40;;;;;;5114129;28;20719;-86
2022/09/10 08:53:40;;;;;;;21.60;15.13;;;17.20;88.40;;;;;;5113841;28;20171;-86
2022/09/10 08:56:13;;;;;;;15.43;12.65;;;17.20;88.50;;;;;;5113453;28;20687;-85
2022/09/10 08:59:01;;;;;;;17.77;13.32;;;17.20;88.20;;;;;;5113579;28;20184;-86
2022/09/10 09:01:49;;;;;;;19.35;14.77;;;17.30;88.60;;;;;;5114780;28;20193;-85
2022/09/10 09:04:35;;;;;;;20.63;13.80;;;17.30;88.00;;;;;;5113670;28;20207;-85
2022/09/10 09:07:11;;;;;;;15.82;12.50;;;17.30;88.10;;;;;;5112823;28;20217;-88
2022/09/10 09:09:37;;;;;;;14.02;12.13;;;17.50;88.20;;;;;;5113530;28;20158;-89
2022/09/10 09:12:34;;;;;;;18.27;12.68;;;17.60;88.00;;;;;;5113342;28;20643;-89
2022/09/10 09:15:19;;;;;;;16.77;12.68;;;17.60;87.70;;;;;;5114320;28;20516;-88
2022/09/10 09:18:14;;;;;;;14.25;12.43;;;17.70;87.40;;;;;;5114621;28;20663;-87
2022/09/10 09:20:46;;;;;;;15.68;12.40;;;17.70;87.10;;;;;;5113093;28;20178;-87
2022/09/10 09:23:40;;;;;;;13.18;11.82;;;17.80;87.00;;;;;;5113237;28;20667;-87
2022/09/10 09:26:12;;;;;;;12.75;11.45;;;17.90;86.80;;;;;;5114347;28;20193;-88
2022/09/10 09:28:43;;;;;;;16.17;12.07;;;17.90;86.20;;;;;;5113103;28;20174;-88
2022/09/10 09:31:24;;;;;;;15.43;11.63;;;17.90;85.70;;;;;;5113220;28;20163;-89
2022/09/10 09:33:53;;;;;;;19.20;13.50;;;17.90;85.40;;;;;;5113129;28;20167;-88
2022/09/10 09:36:29;;;;;;;13.02;11.65;;;18.00;85.00;;;;;;5115831;28;20194;-88
2022/09/10 09:38:55;;;;;;;12.80;11.50;;;18.10;84.80;;;;;;5114528;28;20244;-88
2022/09/10 09:41:45;;;;;;;16.38;12.75;;;18.10;84.70;;;;;;5114141;28;20223;-88
2022/09/10 09:44:21;;;;;;;13.43;11.48;;;18.00;84.40;;;;;;5112915;28;20166;-88
2022/09/10 09:46:48;;;;;;;15.43;12.95;;;18.10;84.50;;;;;;5112684;28;20201;-88
2022/09/10 09:49:15;;;;;;;15.25;13.70;;;18.10;84.30;;;;;;5113890;28;20166;-88
2022/09/10 09:51:43;;;;;;;16.45;13.65;;;17.90;83.70;;;;;;5112763;28;20182;-88
2022/09/10 09:54:16;;;;;;;17.52;12.40;;;18.00;84.30;;;;;;5112749;28;20178;-89
2022/09/10 09:56:46;;;;;;;16.60;12.77;;;18.10;84.60;;;;;;5112887;28;20201;-89
2022/09/10 09:59:30;;;;;;;13.80;11.98;;;18.00;84.30;;;;;;5112775;28;20185;-88
2022/09/10 10:02:12;;;;;;;15.77;13.43;;;18.00;84.20;;;;;;5112642;28;20678;-89
2022/09/10 10:04:53;;;;;;;16.08;11.95;;;18.00;84.10;;;;;;5113902;28;20193;-89
2022/09/10 10:07:31;;;;;;;16.90;12.77;;;17.90;83.90;;;;;;5112578;28;20189;-89
2022/09/10 10:10:00;;;;;;;18.08;14.23;;;18.00;84.10;;;;;;5113279;28;20214;-89
2022/09/10 10:12:30;;;;;;;17.73;13.73;;;18.10;84.20;;;;;;5113000;28;20666;-90
2022/09/10 10:14:56;;;;;;;15.50;13.10;;;18.10;84.10;;;;;;5113390;28;20216;-89
2022/09/10 10:17:31;;;;;;;13.57;11.90;;;18.30;84.00;;;;;;5113869;28;20244;-88
2022/09/10 10:20:07;;;;;;;14.10;11.25;;;18.30;83.90;;;;;;5117215;28;20174;-89
2022/09/10 10:22:34;;;;;;;13.82;10.23;;;18.30;83.30;;;;;;5118195;27;20184;-88
2022/09/10 10:25:03;;;;;;;15.10;10.90;;;18.50;83.50;;;;;;5118145;28;20162;-88
2022/09/10 10:27:35;;;;;;;18.30;11.50;;;18.30;82.50;;;;;;5116635;28;20190;-88
2022/09/10 10:30:16;;;;;;;15.45;11.40;;;18.50;83.00;;;;;;5116652;28;20177;-89
2022/09/10 10:32:46;;;;;;;12.35;9.98;;;18.40;82.50;;;;;;5118002;28;20542;-88
2022/09/10 10:35:18;;;;;;;13.38;10.85;;;18.60;83.50;;;;;;5116634;28;20541;-88
2022/09/10 10:38:14;;;;;;;16.40;10.77;;;18.70;83.20;;;;;;5116770;28;20162;-89
2022/09/10 10:41:20;;;;;;;16.23;11.02;;;18.70;83.10;;;;;;5118188;27;20165;-88
2022/09/10 10:44:17;;;;;;;20.40;11.40;;;18.70;82.40;;;;;;5115768;28;20246;-86
2022/09/10 10:47:03;;;;;;;19.90;10.50;;;18.80;82.30;;;;;;5117725;28;20277;-85
2022/09/10 10:50:07;;;;;;;16.50;11.13;;;18.70;81.90;;;;;;5116342;28;20162;-86
2022/09/10 10:53:10;;;;;;;11.52;9.02;;;18.70;82.50;;;;;;5117478;28;20162;-86
2022/09/10 10:56:07;;;;;;;12.32;8.40;;;18.70;81.80;;;;;;5117528;28;20565;-88
2022/09/10 10:58:33;;;;;;;11.60;7.70;;;18.80;81.80;;;;;;5116184;28;20179;-87
2022/09/10 11:01:03;;;;;;;9.65;8.10;;;18.90;81.20;;;;;;5116053;28;20182;-87
2022/09/10 11:03:45;;;;;;;10.98;9.00;;;19.10;81.30;;;;;;5117557;28;20193;-88
2022/09/10 11:06:19;;;;;;;15.27;9.32;;;19.10;80.70;;;;;;5116977;28;20610;-87
2022/09/10 11:08:56;;;;;;;17.35;8.85;;;19.20;81.00;;;;;;5115967;28;20253;-88
2022/09/10 11:11:51;;;;;;;13.45;9.02;;;19.20;80.60;;;;;;5117116;28;20593;-86
2022/09/10 11:14:36;;;;;;;12.02;8.77;;;19.20;79.50;;;;;;5117524;28;20182;-87
2022/09/10 11:17:09;;;;;;;13.45;8.45;;;19.40;80.00;;;;;;5115841;28;20197;-86
2022/09/10 11:19:41;;;;;;;12.07;8.82;;;19.40;79.10;;;;;;5116981;28;20158;-86
2022/09/10 11:22:21;;;;;;;9.90;7.75;;;19.30;78.90;;;;;;5115411;28;20194;-88
2022/09/10 11:24:59;;;;;;;10.75;8.10;;;19.30;79.10;;;;;;5116595;27;20241;-88
2022/09/10 11:27:38;;;;;;;9.07;7.07;;;19.50;78.40;;;;;;5115264;28;20193;-86
2022/09/10 11:30:05;;;;;;;8.65;7.15;;;19.40;78.30;;;;;;5114699;28;20589;-86
2022/09/10 11:33:04;;;;;;;11.93;7.20;;;19.10;78.70;;;;;;5116560;28;20181;-87
2022/09/10 11:35:39;;;;;;;12.55;6.97;;;19.20;79.00;;;;;;5116422;28;20169;-87
2022/09/10 11:38:29;;;;;;;8.73;7.13;;;19.00;78.80;;;;;;5115308;28;20159;-88
2022/09/10 11:40:58;;;;;;;13.80;8.48;;;19.10;78.70;;;;;;5115275;28;20166;-86
2022/09/10 11:43:36;;;;;;;11.35;7.82;;;19.00;78.10;;;;;;5116311;28;20222;-86
2022/09/10 11:46:06;;;;;;;12.05;7.97;;;19.00;78.20;;;;;;5115250;28;20683;-87
2022/09/10 11:48:38;;;;;;;12.07;8.10;;;19.00;78.00;;;;;;5115074;28;20209;-87
2022/09/10 11:51:12;;;;;;;11.48;9.05;;;18.90;79.40;;;;;;5115006;28;20166;-87
2022/09/10 11:53:39;;;;;;;8.48;6.80;;;19.10;79.60;;;;;;5115055;28;20178;-87
2022/09/10 11:56:26;;;;;;;8.63;7.75;;;19.10;78.70;;;;;;5114778;28;20202;-87
2022/09/10 11:59:01;;;;;;;8.75;7.75;;;19.20;78.80;;;;;;5114804;28;20170;-87
2022/09/10 12:01:54;;;;;;;13.20;9.10;;;19.10;78.90;;;;;;5114906;28;20212;-87
2022/09/10 12:04:37;;;;;;;13.80;8.85;;;18.80;80.00;;;;;;5116214;28;20196;-87
2022/09/10 12:07:18;;;;;;;12.00;9.55;;;18.80;80.70;;;;;;5114577;28;20194;-87
2022/09/10 12:09:58;;;;;;;9.38;8.18;;;18.80;81.30;;;;;;5115909;28;20237;-87
2022/09/10 12:12:52;;;;;;;9.77;8.77;;;18.90;81.60;;;;;;5114575;28;20554;-87
2022/09/10 12:15:21;;;;;;;15.27;8.82;;;18.90;81.50;;;;;;5115493;28;20170;-87
2022/09/10 12:17:59;;;;;;;9.65;8.65;;;19.00;82.10;;;;;;5114474;28;20201;-87
2022/09/10 12:20:30;;;;;;;9.63;8.05;;;19.10;82.40;;;;;;5114490;28;20651;-87
2022/09/10 12:22:57;;;;;;;10.18;8.48;;;19.20;82.40;;;;;;5114412;28;20193;-87
2022/09/10 12:25:27;;;;;;;11.30;8.88;;;19.20;82.60;;;;;;5114236;28;20181;-87
2022/09/10 12:27:58;;;;;;;9.40;8.27;;;19.20;81.80;;;;;;5115468;28;20162;-87
2022/09/10 12:30:27;;;;;;;8.90;7.85;;;19.50;81.60;;;;;;5114294;28;20174;-87
2022/09/10 12:32:56;;;;;;;11.45;8.05;;;19.20;80.80;;;;;;5114060;28;20205;-87
2022/09/10 12:35:31;;;;;;;9.70;7.80;;;19.40;81.40;;;;;;5114607;28;20181;-87
2022/09/10 12:38:35;;;;;;;10.73;7.50;;;19.20;80.80;;;;;;5115340;28;20238;-87
2022/09/10 12:41:14;;;;;;;8.38;5.95;;;19.20;80.90;;;;;;5113374;28;20178;-87
2022/09/10 12:43:39;;;;;;;6.82;5.80;;;19.00;80.10;;;;;;5115258;28;20182;-87
2022/09/10 12:46:08;;;;;;;8.60;5.57;;;19.00;81.20;;;;;;5113919;28;20622;-88
2022/09/10 12:48:43;;;;;;;8.38;5.43;;;18.80;80.70;;;;;;5114554;28;20582;-87
2022/09/10 12:51:18;;;;;;;10.93;8.88;;;18.90;81.10;;;;;;5117590;28;20547;-87
2022/09/10 12:54:19;;;;;;;14.02;12.48;;;18.90;81.80;;;;;;5114504;28;20225;-88
2022/09/10 12:57:19;;;;;;;17.08;15.60;;;18.80;83.20;;;;;;5113898;28;20190;-87
2022/09/10 13:00:10;;;;;;;22.45;19.48;;;18.70;84.20;;;;;;5114963;28;20348;-86
2022/09/10 13:02:40;;;;;;;21.88;19.50;;;18.30;85.20;;;;;;5115138;28;20258;-86